createdAt,value
2017-10-28T00:01:32.923Z,52.95
2017-10-28T00:03:58.711Z,53.44
2017-10-28T00:06:24.451Z,52.85
2017-10-28T00:08:50.264Z,53.29
2017-10-28T00:11:16.013Z,52.65
2017-10-28T00:13:41.953Z,52.72
2017-10-28T00:16:07.748Z,52.99
2017-10-28T00:18:33.500Z,52.85
2017-10-28T00:20:59.256Z,52.88
2017-10-28T00:23:25.039Z,52.95
2017-10-28T00:25:50.784Z,52.97
2017-10-28T00:28:16.592Z,52.86
2017-10-28T00:30:48.532Z,52.82
2017-10-28T00:33:20.567Z,53.60
2017-10-28T00:35:52.410Z,53.31
2017-10-28T00:38:18.148Z,53.34
2017-10-28T00:40:43.984Z,53.01
2017-10-28T00:43:09.735Z,53.20
2017-10-28T00:45:35.620Z,53.17
2017-10-28T00:48:01.364Z,53.29
2017-10-28T00:50:27.140Z,53.35
2017-10-28T00:52:52.891Z,53.20
2017-10-28T00:55:18.630Z,53.52
2017-10-28T00:57:44.379Z,53.27
2017-10-28T01:00:10.124Z,53.33
2017-10-28T01:02:35.863Z,53.03
2017-10-28T01:05:01.613Z,53.06
2017-10-28T01:07:27.418Z,52.61
2017-10-28T01:09:53.307Z,52.86
2017-10-28T01:12:19.055Z,53.29
2017-10-28T01:14:45.385Z,53.40
2017-10-28T01:17:11.124Z,52.55
2017-10-28T01:19:36.890Z,52.82
2017-10-28T01:22:02.674Z,53.15
2017-10-28T01:24:28.403Z,52.92
2017-10-28T01:26:54.147Z,52.64
2017-10-28T01:29:19.895Z,53.14
2017-10-28T01:31:45.636Z,52.68
2017-10-28T01:34:11.391Z,52.84
2017-10-28T01:36:37.132Z,53.14
2017-10-28T01:39:02.881Z,52.96
2017-10-28T01:41:28.668Z,53.38
2017-10-28T01:43:54.414Z,53.54
2017-10-28T01:46:20.144Z,52.82
2017-10-28T01:48:45.892Z,53.18
2017-10-28T01:51:11.628Z,53.12
2017-10-28T01:53:37.411Z,53.64
2017-10-28T01:56:04.007Z,53.09
2017-10-28T01:58:29.927Z,53.56
2017-10-28T02:00:55.671Z,52.84
2017-10-28T02:03:22.227Z,53.23
2017-10-28T02:05:47.976Z,52.91
2017-10-28T02:08:13.719Z,53.78
2017-10-28T02:10:39.455Z,53.63
2017-10-28T02:13:05.372Z,52.89
2017-10-28T02:15:31.107Z,52.79
2017-10-28T02:17:56.980Z,52.90
2017-10-28T02:20:22.741Z,53.28
2017-10-28T02:22:48.487Z,53.22
2017-10-28T02:25:14.239Z,53.07
2017-10-28T02:27:40.056Z,53.88
2017-10-28T02:30:05.801Z,53.66
2017-10-28T02:32:31.547Z,53.99
2017-10-28T02:34:57.296Z,53.12
2017-10-28T02:37:23.239Z,53.33
2017-10-28T02:39:48.987Z,54.07
2017-10-28T02:42:14.968Z,53.39
2017-10-28T02:44:40.721Z,52.65
2017-10-28T02:47:06.532Z,53.82
2017-10-28T02:49:32.432Z,53.52
2017-10-28T02:51:58.186Z,53.38
2017-10-28T02:54:23.956Z,53.27
2017-10-28T02:56:49.696Z,53.22
2017-10-28T02:59:15.440Z,53.37
2017-10-28T03:01:41.184Z,53.80
2017-10-28T03:04:06.968Z,53.67
2017-10-28T03:06:32.725Z,52.98
2017-10-28T03:08:58.483Z,52.86
2017-10-28T03:11:24.233Z,52.92
2017-10-28T03:13:49.980Z,53.15
2017-10-28T03:16:15.727Z,52.85
2017-10-28T03:18:41.511Z,53.51
2017-10-28T03:21:07.306Z,53.26
2017-10-28T03:23:33.070Z,52.86
2017-10-28T03:25:58.862Z,53.31
2017-10-28T03:28:24.616Z,53.24
2017-10-28T03:30:50.377Z,53.12
2017-10-28T03:33:16.905Z,53.26
2017-10-28T03:35:42.653Z,53.21
2017-10-28T03:38:08.712Z,53.49
2017-10-28T03:40:34.460Z,53.62
2017-10-28T03:43:00.268Z,53.60
2017-10-28T03:45:26.015Z,53.24
2017-10-28T03:47:51.764Z,53.65
2017-10-28T03:50:18.193Z,54.03
2017-10-28T03:52:43.940Z,53.72
2017-10-28T03:55:09.702Z,53.43
2017-10-28T03:57:35.589Z,53.36
2017-10-28T04:00:01.344Z,53.52
2017-10-28T04:02:27.220Z,53.70
2017-10-28T04:04:53.007Z,53.57
2017-10-28T04:07:18.749Z,54.09
2017-10-28T04:09:44.500Z,53.51
2017-10-28T04:12:10.256Z,54.20
2017-10-28T04:14:36.000Z,53.70
2017-10-28T04:17:01.752Z,53.91
2017-10-28T04:19:27.512Z,54.39
2017-10-28T04:21:53.264Z,54.05
2017-10-28T04:24:19.026Z,54.24
2017-10-28T04:26:44.784Z,53.68
2017-10-28T04:29:10.529Z,53.69
2017-10-28T04:31:36.277Z,53.54
2017-10-28T04:34:02.076Z,54.59
2017-10-28T04:36:27.836Z,53.81
2017-10-28T04:38:53.603Z,54.17
2017-10-28T04:41:19.360Z,53.99
2017-10-28T04:43:45.295Z,53.62
2017-10-28T04:46:11.044Z,53.81
2017-10-28T04:48:36.788Z,53.47
2017-10-28T04:51:02.565Z,53.29
2017-10-28T04:53:28.311Z,53.49
2017-10-28T04:55:54.211Z,53.70
2017-10-28T04:58:19.968Z,53.59
2017-10-28T05:00:45.724Z,53.52
2017-10-28T05:03:11.596Z,54.08
2017-10-28T05:05:37.347Z,54.66
2017-10-28T05:08:03.146Z,54.04
2017-10-28T05:10:28.968Z,53.80
2017-10-28T05:12:54.722Z,53.61
2017-10-28T05:15:20.472Z,54.11
2017-10-28T05:17:46.337Z,53.59
2017-10-28T05:20:12.444Z,54.23
2017-10-28T05:22:38.235Z,54.46
2017-10-28T05:25:03.987Z,53.91
2017-10-28T05:27:29.732Z,54.00
2017-10-28T05:29:55.940Z,54.72
2017-10-28T05:32:21.716Z,53.62
2017-10-28T05:34:47.463Z,53.75
2017-10-28T05:37:13.224Z,53.23
2017-10-28T05:39:38.976Z,54.10
2017-10-28T05:42:04.734Z,53.82
2017-10-28T05:44:30.480Z,53.28
2017-10-28T05:46:56.223Z,53.36
2017-10-28T05:49:23.084Z,53.44
2017-10-28T05:51:48.824Z,53.74
2017-10-28T05:54:14.574Z,53.46
2017-10-28T05:56:40.322Z,53.18
2017-10-28T05:59:06.112Z,52.93
2017-10-28T06:01:31.860Z,53.42
2017-10-28T06:03:57.603Z,53.51
2017-10-28T06:06:23.355Z,53.52
2017-10-28T06:08:49.111Z,53.81
2017-10-28T06:11:14.851Z,53.65
2017-10-28T06:13:40.603Z,53.48
2017-10-28T06:16:06.351Z,53.18
2017-10-28T06:18:32.109Z,53.27
2017-10-28T06:20:57.856Z,53.03
2017-10-28T06:23:23.644Z,53.14
2017-10-28T06:25:49.389Z,53.08
2017-10-28T06:28:16.079Z,53.85
2017-10-28T06:30:41.885Z,53.36
2017-10-28T06:33:07.644Z,52.92
2017-10-28T06:35:33.429Z,53.00
2017-10-28T06:37:59.171Z,53.84
2017-10-28T06:40:24.920Z,53.54
2017-10-28T06:42:50.721Z,53.49
2017-10-28T06:45:16.467Z,53.50
2017-10-28T06:47:42.208Z,53.50
2017-10-28T06:50:07.964Z,53.82
2017-10-28T06:52:33.715Z,53.24
2017-10-28T06:54:59.505Z,53.27
2017-10-28T06:57:25.607Z,53.29
2017-10-28T06:59:51.367Z,53.78
2017-10-28T07:02:17.159Z,53.40
2017-10-28T07:04:42.924Z,53.75
2017-10-28T07:07:08.796Z,53.52
2017-10-28T07:09:34.565Z,53.64
2017-10-28T07:12:01.264Z,53.07
2017-10-28T07:14:27.016Z,53.99
2017-10-28T07:16:52.764Z,53.39
2017-10-28T07:19:18.554Z,53.03
2017-10-28T07:21:44.416Z,53.14
2017-10-28T07:24:10.164Z,53.58
2017-10-28T07:26:35.915Z,53.62
2017-10-28T07:29:01.667Z,53.25
2017-10-28T07:31:27.399Z,53.54
2017-10-28T07:33:53.173Z,52.80
2017-10-28T07:36:18.924Z,53.62
2017-10-28T07:38:44.673Z,53.23
2017-10-28T07:41:10.470Z,53.30
2017-10-28T07:43:36.238Z,53.11
2017-10-28T07:46:02.130Z,52.99
2017-10-28T07:48:27.903Z,53.46
2017-10-28T07:50:53.662Z,53.24
2017-10-28T07:53:19.456Z,53.04
2017-10-28T07:55:45.208Z,53.03
2017-10-28T07:58:10.964Z,53.78
2017-10-28T08:00:36.712Z,53.97
2017-10-28T08:03:02.478Z,52.63
2017-10-28T08:05:28.228Z,53.50
2017-10-28T08:07:54.184Z,52.34
2017-10-28T08:10:19.988Z,52.85
2017-10-28T08:12:46.328Z,53.40
2017-10-28T08:15:12.096Z,53.23
2017-10-28T08:17:38.556Z,52.65
2017-10-28T08:20:04.312Z,52.55
2017-10-28T08:22:30.055Z,52.30
2017-10-28T08:24:55.801Z,52.99
2017-10-28T08:27:21.544Z,52.91
2017-10-28T08:29:47.339Z,52.35
2017-10-28T08:32:13.073Z,53.13
2017-10-28T08:34:38.816Z,52.90
2017-10-28T08:37:04.567Z,52.94
2017-10-28T08:39:30.312Z,52.84
2017-10-28T08:41:56.085Z,52.47
2017-10-28T08:44:21.838Z,52.70
2017-10-28T08:46:47.584Z,52.67
2017-10-28T08:49:13.337Z,53.13
2017-10-28T08:51:39.091Z,50.67
2017-10-28T08:54:04.879Z,50.39
2017-10-28T08:56:30.622Z,50.04
2017-10-28T08:58:56.368Z,49.91
2017-10-28T09:01:22.137Z,50.06
2017-10-28T09:03:47.895Z,49.05
2017-10-28T09:06:13.644Z,49.31
2017-10-28T09:08:39.933Z,49.63
2017-10-28T09:11:05.672Z,49.43
2017-10-28T09:13:31.428Z,49.08
2017-10-28T09:15:57.178Z,49.13
2017-10-28T09:18:22.927Z,48.89
2017-10-28T09:20:48.715Z,48.68
2017-10-28T09:23:14.482Z,48.50
2017-10-28T09:25:40.409Z,48.61
2017-10-28T09:28:06.151Z,49.43
2017-10-28T09:30:31.926Z,50.04
2017-10-28T09:32:57.679Z,50.80
2017-10-28T09:35:23.436Z,50.25
2017-10-28T09:37:49.194Z,49.35
2017-10-28T09:40:14.964Z,48.84
2017-10-28T09:42:40.732Z,48.86
2017-10-28T09:45:06.483Z,48.29
2017-10-28T09:47:32.236Z,47.21
2017-10-28T09:49:57.992Z,47.13
2017-10-28T09:52:23.916Z,46.65
2017-10-28T09:54:49.670Z,47.47
2017-10-28T09:57:15.442Z,48.44
2017-10-28T09:59:42.213Z,47.06
2017-10-28T10:02:08.756Z,46.74
2017-10-28T10:04:34.508Z,46.01
2017-10-28T10:07:00.252Z,46.69
2017-10-28T10:09:26.014Z,48.68
2017-10-28T10:11:51.778Z,47.16
2017-10-28T10:14:17.532Z,47.95
2017-10-28T10:16:43.277Z,47.41
2017-10-28T10:19:09.032Z,47.70
2017-10-28T10:21:34.779Z,47.69
2017-10-28T10:24:00.632Z,47.44
2017-10-28T10:26:26.405Z,47.37
2017-10-28T10:28:52.186Z,47.79
2017-10-28T10:31:17.940Z,48.05
2017-10-28T10:33:43.696Z,48.36
2017-10-28T10:36:09.452Z,48.07
2017-10-28T10:38:35.200Z,47.27
2017-10-28T10:41:01.011Z,47.58
2017-10-28T10:43:26.800Z,47.78
2017-10-28T10:45:52.549Z,48.72
2017-10-28T10:48:18.372Z,48.09
2017-10-28T10:50:44.167Z,48.62
2017-10-28T10:53:09.927Z,48.74
2017-10-28T10:55:35.683Z,47.92
2017-10-28T10:58:01.432Z,46.40
2017-10-28T11:00:27.193Z,47.75
2017-10-28T11:02:52.953Z,48.60
2017-10-28T11:05:18.803Z,50.37
2017-10-28T11:07:44.580Z,47.85
2017-10-28T11:10:10.340Z,47.54
2017-10-28T11:12:36.104Z,48.25
2017-10-28T11:15:01.856Z,49.36
2017-10-28T11:17:27.648Z,48.22
2017-10-28T11:19:53.394Z,48.56
2017-10-28T11:22:19.185Z,48.50
2017-10-28T11:24:44.947Z,48.82
2017-10-28T11:27:10.697Z,48.74
2017-10-28T11:29:36.529Z,49.02
2017-10-28T11:32:02.284Z,49.31
2017-10-28T11:34:28.035Z,49.33
2017-10-28T11:36:53.794Z,49.09
2017-10-28T11:39:19.589Z,49.13
2017-10-28T11:41:45.347Z,50.08
2017-10-28T11:44:11.127Z,50.35
2017-10-28T11:46:36.923Z,49.71
2017-10-28T11:49:02.692Z,49.43
2017-10-28T11:51:29.440Z,50.61
2017-10-28T11:53:55.214Z,51.07
2017-10-28T11:56:20.965Z,50.18
2017-10-28T11:58:46.714Z,50.31
2017-10-28T12:01:12.467Z,49.85
2017-10-28T12:03:38.402Z,49.94
2017-10-28T12:06:04.429Z,50.79
2017-10-28T12:08:30.192Z,50.90
2017-10-28T12:10:56.027Z,50.56
2017-10-28T12:13:21.805Z,50.84
2017-10-28T12:15:47.549Z,50.36
2017-10-28T12:18:13.319Z,50.34
2017-10-28T12:20:39.074Z,50.74
2017-10-28T12:23:04.828Z,50.38
2017-10-28T12:25:30.594Z,50.41
2017-10-28T12:27:56.338Z,50.39
2017-10-28T12:30:22.088Z,50.22
2017-10-28T12:32:47.883Z,50.76
2017-10-28T12:35:13.639Z,51.21
2017-10-28T12:37:39.394Z,51.81
2017-10-28T12:40:05.182Z,50.96
2017-10-28T12:42:30.936Z,52.02
2017-10-28T12:44:56.712Z,51.45
2017-10-28T12:47:22.467Z,51.49
2017-10-28T12:49:48.244Z,50.86
2017-10-28T12:52:13.998Z,51.16
2017-10-28T12:54:39.755Z,51.01
2017-10-28T12:57:05.505Z,50.92
2017-10-28T12:59:31.252Z,51.10
2017-10-28T13:01:57.007Z,51.15
2017-10-28T13:04:22.791Z,51.70
2017-10-28T13:06:48.541Z,51.27
2017-10-28T13:09:14.295Z,50.73
2017-10-28T13:11:40.049Z,50.72
2017-10-28T13:14:05.807Z,51.66
2017-10-28T13:16:31.599Z,51.32
2017-10-28T13:18:58.038Z,50.90
2017-10-28T13:21:23.997Z,51.11
2017-10-28T13:23:49.761Z,51.39
2017-10-28T13:26:16.881Z,51.32
2017-10-28T13:28:42.648Z,51.85
2017-10-28T13:31:08.403Z,51.44
2017-10-28T13:33:34.147Z,51.73
2017-10-28T13:35:59.904Z,52.76
2017-10-28T13:38:26.140Z,51.72
2017-10-28T13:40:51.888Z,52.04
2017-10-28T13:43:17.661Z,51.69
2017-10-28T13:45:43.457Z,51.84
2017-10-28T13:48:09.221Z,51.79
2017-10-28T13:50:34.983Z,51.48
2017-10-28T13:53:00.747Z,51.39
2017-10-28T13:55:26.497Z,51.11
2017-10-28T13:57:52.308Z,51.72
2017-10-28T14:00:18.983Z,52.04
2017-10-28T14:02:44.738Z,51.55
2017-10-28T14:05:10.872Z,51.39
2017-10-28T14:07:36.655Z,52.29
2017-10-28T14:10:02.417Z,51.57
2017-10-28T14:12:28.180Z,51.59
2017-10-28T14:14:53.945Z,51.79
2017-10-28T14:17:19.704Z,52.29
2017-10-28T14:19:46.148Z,51.48
2017-10-28T14:22:11.911Z,52.42
2017-10-28T14:24:37.669Z,51.86
2017-10-28T14:27:03.481Z,51.66
2017-10-28T14:29:29.256Z,51.68
2017-10-28T14:31:55.020Z,52.13
2017-10-28T14:34:20.799Z,51.21
2017-10-28T14:36:46.561Z,51.54
2017-10-28T14:39:12.344Z,51.41
2017-10-28T14:41:38.092Z,51.80
2017-10-28T14:44:03.837Z,52.49
2017-10-28T14:46:29.620Z,51.88
2017-10-28T14:48:55.371Z,51.83
2017-10-28T14:51:21.158Z,51.87
2017-10-28T14:53:46.923Z,51.64
2017-10-28T14:56:12.726Z,51.65
2017-10-28T14:58:38.484Z,52.21
2017-10-28T15:01:04.236Z,52.23
2017-10-28T15:03:29.984Z,53.21
2017-10-28T15:05:55.784Z,52.53
2017-10-28T15:08:21.544Z,52.25
2017-10-28T15:10:47.320Z,51.63
2017-10-28T15:13:13.077Z,51.58
2017-10-28T15:15:38.866Z,52.53
2017-10-28T15:18:04.619Z,52.30
2017-10-28T15:20:30.968Z,51.92
2017-10-28T15:22:56.746Z,51.78
2017-10-28T15:25:22.492Z,52.57
2017-10-28T15:27:48.258Z,51.93
2017-10-28T15:30:14.057Z,51.81
2017-10-28T15:32:39.812Z,52.35
2017-10-28T15:35:05.622Z,51.40
2017-10-28T15:37:31.375Z,51.72
2017-10-28T15:39:57.120Z,53.97
2017-10-28T15:42:22.864Z,52.41
2017-10-28T15:44:48.622Z,52.22
2017-10-28T15:47:14.416Z,52.72
2017-10-28T15:49:40.181Z,51.89
2017-10-28T15:52:06.013Z,51.60
2017-10-28T15:54:31.755Z,52.61
2017-10-28T15:56:57.515Z,52.01
2017-10-28T15:59:23.256Z,52.28
2017-10-28T16:01:49.007Z,52.45
2017-10-28T16:04:14.779Z,51.99
2017-10-28T16:06:40.530Z,52.42
2017-10-28T16:09:06.285Z,52.32
2017-10-28T16:11:32.045Z,51.99
2017-10-28T16:13:57.816Z,52.31
2017-10-28T16:16:23.571Z,52.38
2017-10-28T16:19:05.371Z,52.42
2017-10-28T16:21:31.152Z,52.19
2017-10-28T16:23:56.961Z,52.21
2017-10-28T16:26:22.775Z,52.02
2017-10-28T16:28:48.664Z,51.81
2017-10-28T16:31:14.428Z,51.85
2017-10-28T16:33:40.792Z,52.85
2017-10-28T16:36:13.459Z,52.50
2017-10-28T16:38:39.655Z,52.60
2017-10-28T16:41:05.421Z,52.63
2017-10-28T16:43:31.181Z,53.45
2017-10-28T16:45:56.928Z,53.17
2017-10-28T16:48:23.237Z,52.49
2017-10-28T16:50:49.004Z,52.48
2017-10-28T16:53:14.804Z,52.61
2017-10-28T16:55:40.558Z,54.01
2017-10-28T16:58:06.337Z,53.65
2017-10-28T17:00:32.088Z,53.32
2017-10-28T17:02:57.963Z,53.31
2017-10-28T17:05:23.716Z,52.95
2017-10-28T17:07:49.476Z,52.10
2017-10-28T17:10:15.276Z,52.24
2017-10-28T17:12:41.046Z,52.05
2017-10-28T17:15:06.814Z,52.25
2017-10-28T17:17:32.629Z,52.75
2017-10-28T17:19:59.108Z,53.36
2017-10-28T17:22:24.876Z,53.74
2017-10-28T17:24:51.237Z,53.63
2017-10-28T17:27:17.595Z,53.08
2017-10-28T17:29:43.347Z,52.62
2017-10-28T17:32:09.101Z,53.20
2017-10-28T17:34:34.852Z,53.58
2017-10-28T17:37:00.651Z,52.85
2017-10-28T17:39:26.403Z,52.63
2017-10-28T17:41:52.654Z,52.62
2017-10-28T17:44:18.421Z,52.08
2017-10-28T17:46:44.181Z,52.33
2017-10-28T17:49:09.952Z,52.48
2017-10-28T17:51:35.719Z,52.88
2017-10-28T17:54:01.467Z,52.48
2017-10-28T17:56:28.119Z,52.74
2017-10-28T17:58:54.576Z,53.13
2017-10-28T18:01:20.403Z,52.46
2017-10-28T18:03:46.166Z,52.71
2017-10-28T18:06:12.281Z,52.56
2017-10-28T18:08:38.350Z,52.93
2017-10-28T18:11:04.166Z,52.19
2017-10-28T18:13:29.937Z,51.96
2017-10-28T18:15:56.525Z,52.45
2017-10-28T18:18:22.390Z,52.47
2017-10-28T18:20:48.152Z,53.08
2017-10-28T18:23:13.948Z,52.59
2017-10-28T18:25:39.697Z,52.42
2017-10-28T18:28:05.507Z,52.16
2017-10-28T18:30:31.264Z,51.70
2017-10-28T18:32:57.015Z,52.62
2017-10-28T18:35:22.860Z,52.13
2017-10-28T18:37:49.644Z,52.94
2017-10-28T18:40:15.439Z,52.16
2017-10-28T18:42:41.191Z,52.83
2017-10-28T18:45:06.937Z,52.42
2017-10-28T18:47:32.692Z,52.48
2017-10-28T18:49:58.488Z,52.62
2017-10-28T18:52:24.735Z,53.10
2017-10-28T18:54:52.540Z,53.02
2017-10-28T18:57:18.318Z,53.12
2017-10-28T18:59:44.109Z,52.63
2017-10-28T19:02:09.880Z,53.03
2017-10-28T19:04:35.680Z,52.52
2017-10-28T19:07:01.477Z,52.73
2017-10-28T19:09:27.264Z,52.93
2017-10-28T19:11:53.987Z,52.52
2017-10-28T19:14:19.745Z,52.61
2017-10-28T19:16:47.389Z,52.80
2017-10-28T19:19:13.282Z,52.49
2017-10-28T19:21:39.042Z,52.80
2017-10-28T19:24:04.837Z,53.20
2017-10-28T19:26:30.638Z,52.77
2017-10-28T19:28:56.431Z,52.40
2017-10-28T19:31:22.245Z,52.28
2017-10-28T19:33:49.029Z,52.19
2017-10-28T19:36:14.843Z,52.31
2017-10-28T19:38:40.600Z,52.50
2017-10-28T19:41:06.349Z,52.56
2017-10-28T19:43:34.438Z,52.72
2017-10-28T19:46:01.042Z,52.97
2017-10-28T19:48:26.820Z,52.74
2017-10-28T19:50:53.829Z,52.55
2017-10-28T19:53:21.732Z,53.27
2017-10-28T19:55:48.211Z,53.09
2017-10-28T19:58:14.005Z,52.83
2017-10-28T20:00:39.773Z,52.58
2017-10-28T20:03:05.562Z,53.07
2017-10-28T20:05:31.343Z,52.47
2017-10-28T20:07:58.903Z,52.65
2017-10-28T20:10:25.408Z,52.56
2017-10-28T20:12:51.252Z,52.50
2017-10-28T20:15:17.784Z,52.69
2017-10-28T20:17:44.483Z,52.99
2017-10-28T20:20:11.295Z,53.44
2017-10-28T20:22:37.062Z,52.85
2017-10-28T20:25:03.197Z,52.87
2017-10-28T20:27:29.156Z,52.81
2017-10-28T20:29:54.957Z,52.74
2017-10-28T20:32:21.830Z,52.99
2017-10-28T20:34:47.600Z,53.43
2017-10-28T20:37:13.368Z,53.41
2017-10-28T20:39:39.134Z,53.51
2017-10-28T20:42:04.916Z,53.38
2017-10-28T20:44:31.419Z,53.26
2017-10-28T20:46:57.164Z,54.01
2017-10-28T20:49:22.961Z,53.32
2017-10-28T20:51:48.731Z,54.22
2017-10-28T20:54:14.476Z,53.97
2017-10-28T20:56:40.268Z,53.68
2017-10-28T20:59:06.589Z,53.91
2017-10-28T21:01:32.353Z,53.45
2017-10-28T21:03:58.135Z,53.66
2017-10-28T21:06:23.896Z,53.39
2017-10-28T21:08:49.645Z,53.07
2017-10-28T21:11:15.396Z,53.19
2017-10-28T21:13:41.162Z,53.43
2017-10-28T21:16:06.919Z,53.68
2017-10-28T21:18:35.204Z,53.43
2017-10-28T21:21:00.971Z,54.38
2017-10-28T21:23:26.741Z,54.14
2017-10-28T21:25:52.546Z,54.20
2017-10-28T21:28:18.397Z,54.00
2017-10-28T21:30:44.177Z,54.20
2017-10-28T21:33:09.963Z,54.35
2017-10-28T21:35:36.421Z,53.65
2017-10-28T21:38:02.240Z,53.75
2017-10-28T21:40:28.008Z,53.96
2017-10-28T21:42:53.786Z,53.71
2017-10-28T21:45:19.661Z,53.79
2017-10-28T21:47:45.416Z,53.86
2017-10-28T21:50:11.358Z,53.59
2017-10-28T21:52:37.152Z,53.70
2017-10-28T21:55:02.926Z,53.20
2017-10-28T21:57:28.744Z,53.34
2017-10-28T21:59:54.516Z,54.14
2017-10-28T22:02:20.271Z,53.60
2017-10-28T22:04:46.045Z,53.42
2017-10-28T22:07:11.805Z,53.47
2017-10-28T22:09:37.560Z,54.18
2017-10-28T22:12:03.373Z,54.15
2017-10-28T22:14:29.165Z,54.80
2017-10-28T22:16:54.932Z,53.96
2017-10-28T22:19:20.681Z,54.32
2017-10-28T22:21:46.449Z,54.62
2017-10-28T22:24:12.229Z,54.08
2017-10-28T22:26:37.985Z,53.59
2017-10-28T22:29:03.831Z,53.85
2017-10-28T22:31:29.604Z,53.83
2017-10-28T22:33:55.374Z,53.89
2017-10-28T22:36:21.149Z,53.87
2017-10-28T22:38:46.917Z,54.32
2017-10-28T22:41:12.677Z,54.26
2017-10-28T22:43:38.450Z,54.69
2017-10-28T22:46:04.220Z,53.90
2017-10-28T22:48:30.360Z,54.62
2017-10-28T22:50:56.164Z,54.41
2017-10-28T22:53:21.916Z,54.69
2017-10-28T22:55:47.728Z,54.07
2017-10-28T22:58:13.492Z,54.05
2017-10-28T23:00:39.240Z,54.41
2017-10-28T23:03:05.060Z,54.20
2017-10-28T23:05:31.095Z,54.77
2017-10-28T23:07:56.919Z,54.46
2017-10-28T23:10:22.676Z,54.34
2017-10-28T23:12:48.473Z,54.53
2017-10-28T23:15:14.236Z,54.53
2017-10-28T23:17:40.001Z,53.84
2017-10-28T23:20:05.771Z,54.37
2017-10-28T23:22:31.543Z,54.64
2017-10-28T23:24:57.299Z,54.06
2017-10-28T23:27:23.073Z,53.79
2017-10-28T23:29:48.833Z,54.03
2017-10-28T23:32:14.610Z,54.12
2017-10-28T23:34:40.381Z,53.97
2017-10-28T23:37:06.139Z,54.27
2017-10-28T23:39:31.897Z,54.21
2017-10-28T23:41:57.661Z,53.93
2017-10-28T23:44:23.586Z,54.17
2017-10-28T23:46:49.337Z,54.17
2017-10-28T23:49:15.107Z,54.08
2017-10-28T23:51:40.864Z,54.20
2017-10-28T23:54:06.633Z,54.23
2017-10-28T23:56:32.388Z,54.59
2017-10-28T23:58:58.149Z,54.34
